createdAt,value
2019-02-07T00:00:08.686Z,1008.33
2019-02-07T00:01:08.677Z,1008.28
2019-02-07T00:02:08.665Z,1008.26
2019-02-07T00:03:08.660Z,1008.26
2019-02-07T00:04:08.641Z,1008.23
2019-02-07T00:05:08.677Z,1008.23
2019-02-07T00:06:08.626Z,1008.16
2019-02-07T00:07:08.609Z,1008.15
2019-02-07T00:08:08.601Z,1008.18
2019-02-07T00:09:08.585Z,1008.18
2019-02-07T00:10:08.576Z,1008.18
2019-02-07T00:11:08.616Z,1008.11
2019-02-07T00:12:08.558Z,1008.11
2019-02-07T00:13:08.546Z,1008.10
2019-02-07T00:14:08.531Z,1008.07
2019-02-07T00:15:08.519Z,1008.05
2019-02-07T00:16:08.529Z,1008.04
2019-02-07T00:17:08.505Z,1008.02
2019-02-07T00:18:08.518Z,1007.97
2019-02-07T00:19:08.477Z,1007.98
2019-02-07T00:20:08.470Z,1007.94
2019-02-07T00:21:08.455Z,1007.91
2019-02-07T00:22:08.472Z,1007.93
2019-02-07T00:23:08.443Z,1007.89
2019-02-07T00:24:08.423Z,1007.87
2019-02-07T00:25:08.434Z,1007.85
2019-02-07T00:26:08.401Z,1007.79
2019-02-07T00:27:08.391Z,1007.80
2019-02-07T00:28:08.390Z,1007.79
2019-02-07T00:29:08.366Z,1007.73
2019-02-07T00:30:08.359Z,1007.77
2019-02-07T00:31:08.377Z,1007.70
2019-02-07T00:32:08.336Z,1007.67
2019-02-07T00:33:08.336Z,1007.70
2019-02-07T00:34:08.315Z,1007.66
2019-02-07T00:35:08.302Z,1007.66
2019-02-07T00:36:08.292Z,1007.61
2019-02-07T00:37:08.398Z,1007.61
2019-02-07T00:38:08.275Z,1007.58
2019-02-07T00:39:08.270Z,1007.58
2019-02-07T00:40:08.247Z,1007.56
2019-02-07T00:41:08.246Z,1007.49
2019-02-07T00:42:08.225Z,1007.46
2019-02-07T00:43:08.217Z,1007.46
2019-02-07T00:44:08.204Z,1007.49
2019-02-07T00:45:08.258Z,1007.42
2019-02-07T00:46:08.181Z,1007.42
2019-02-07T00:47:08.168Z,1007.33
2019-02-07T00:48:08.159Z,1007.38
2019-02-07T00:49:08.147Z,1007.31
2019-02-07T00:50:08.142Z,1007.25
2019-02-07T00:51:08.166Z,1007.27
2019-02-07T00:52:08.113Z,1007.23
2019-02-07T00:53:08.109Z,1007.18
2019-02-07T00:54:08.090Z,1007.20
2019-02-07T00:55:08.081Z,1007.16
2019-02-07T00:56:08.088Z,1007.18
2019-02-07T00:57:08.103Z,1007.15
2019-02-07T00:58:08.050Z,1007.18
2019-02-07T00:59:08.038Z,1007.17
2019-02-07T01:00:08.026Z,1007.17
2019-02-07T01:01:08.028Z,1007.12
2019-02-07T01:02:08.017Z,1007.05
2019-02-07T01:03:07.992Z,1007.11
2019-02-07T01:04:08.023Z,1007.04
2019-02-07T01:05:07.974Z,1007.08
2019-02-07T01:06:07.960Z,1007.07
2019-02-07T01:07:07.987Z,1007.05
2019-02-07T01:08:07.944Z,1007.01
2019-02-07T01:09:07.927Z,1007.00
2019-02-07T01:10:07.920Z,1007.00
2019-02-07T01:11:07.911Z,1007.02
2019-02-07T01:12:07.896Z,1006.95
2019-02-07T01:13:07.913Z,1006.94
2019-02-07T01:14:07.872Z,1006.95
2019-02-07T01:15:07.861Z,1006.91
2019-02-07T01:16:07.848Z,1006.91
2019-02-07T01:17:07.839Z,1006.87
2019-02-07T01:18:07.846Z,1006.82
2019-02-07T01:19:07.869Z,1006.78
2019-02-07T01:20:07.806Z,1006.77
2019-02-07T01:21:07.797Z,1006.70
2019-02-07T01:22:07.787Z,1006.72
2019-02-07T01:23:07.774Z,1006.70
2019-02-07T01:24:07.783Z,1006.70
2019-02-07T01:25:07.777Z,1006.61
2019-02-07T01:26:07.737Z,1006.64
2019-02-07T01:27:07.729Z,1006.63
2019-02-07T01:28:07.717Z,1006.58
2019-02-07T01:29:07.709Z,1006.56
2019-02-07T01:30:07.713Z,1006.49
2019-02-07T01:31:07.734Z,1006.51
2019-02-07T01:32:07.676Z,1006.53
2019-02-07T01:33:07.662Z,1006.45
2019-02-07T01:34:07.648Z,1006.42
2019-02-07T01:35:07.641Z,1006.44
2019-02-07T01:36:07.637Z,1006.40
2019-02-07T01:37:07.676Z,1006.35
2019-02-07T01:38:07.606Z,1006.35
2019-02-07T01:39:07.599Z,1006.30
2019-02-07T01:40:07.587Z,1006.30
2019-02-07T01:41:07.601Z,1006.29
2019-02-07T01:42:07.579Z,1006.24
2019-02-07T01:43:07.550Z,1006.22
2019-02-07T01:44:07.594Z,1006.22
2019-02-07T01:45:12.968Z,1006.12
2019-02-07T01:46:08.528Z,1006.13
2019-02-07T01:47:07.515Z,1006.10
2019-02-07T01:48:07.513Z,1006.11
2019-02-07T01:49:07.485Z,1006.06
2019-02-07T01:50:07.473Z,1006.01
2019-02-07T01:51:07.499Z,1006.01
2019-02-07T01:52:07.457Z,1005.97
2019-02-07T01:53:07.453Z,1005.98
2019-02-07T01:54:07.445Z,1005.91
2019-02-07T01:55:07.420Z,1005.95
2019-02-07T01:56:07.412Z,1005.94
2019-02-07T01:57:07.424Z,1005.85
2019-02-07T01:58:07.388Z,1005.87
2019-02-07T01:59:07.392Z,1005.81
2019-02-07T02:00:07.364Z,1005.78
2019-02-07T02:01:07.354Z,1005.73
2019-02-07T02:02:07.343Z,1005.70
2019-02-07T02:03:07.360Z,1005.68
2019-02-07T02:04:07.324Z,1005.67
2019-02-07T02:05:07.353Z,1005.63
2019-02-07T02:06:07.300Z,1005.63
2019-02-07T02:07:07.290Z,1005.66
2019-02-07T02:08:07.276Z,1005.59
2019-02-07T02:09:07.267Z,1005.60
2019-02-07T02:10:07.294Z,1005.57
2019-02-07T02:11:07.255Z,1005.47
2019-02-07T02:12:07.232Z,1005.50
2019-02-07T02:13:07.221Z,1005.49
2019-02-07T02:14:07.209Z,1005.47
2019-02-07T02:15:07.199Z,1005.47
2019-02-07T02:16:07.263Z,1005.44
2019-02-07T02:17:07.177Z,1005.41
2019-02-07T02:18:07.168Z,1005.33
2019-02-07T02:19:07.159Z,1005.31
2019-02-07T02:20:07.145Z,1005.32
2019-02-07T02:21:07.142Z,1005.31
2019-02-07T02:22:07.187Z,1005.29
2019-02-07T02:23:07.111Z,1005.30
2019-02-07T02:24:07.101Z,1005.24
2019-02-07T02:25:07.092Z,1005.23
2019-02-07T02:26:07.086Z,1005.19
2019-02-07T02:27:07.083Z,1005.15
2019-02-07T02:28:07.093Z,1005.16
2019-02-07T02:29:07.046Z,1005.14
2019-02-07T02:30:07.034Z,1005.11
2019-02-07T02:31:07.038Z,1005.10
2019-02-07T02:32:07.016Z,1005.04
2019-02-07T02:33:07.036Z,1005.06
2019-02-07T02:34:06.990Z,1005.10
2019-02-07T02:35:06.978Z,1005.06
2019-02-07T02:36:06.975Z,1005.02
2019-02-07T02:37:06.985Z,1005.00
2019-02-07T02:38:06.953Z,1005.03
2019-02-07T02:39:06.979Z,1004.94
2019-02-07T02:40:06.927Z,1004.89
2019-02-07T02:41:06.914Z,1004.88
2019-02-07T02:42:06.903Z,1004.83
2019-02-07T02:43:06.906Z,1004.85
2019-02-07T02:44:06.882Z,1004.78
2019-02-07T02:45:06.909Z,1004.74
2019-02-07T02:46:06.858Z,1004.82
2019-02-07T02:47:06.847Z,1004.71
2019-02-07T02:48:06.840Z,1004.69
2019-02-07T02:49:06.846Z,1004.63
2019-02-07T02:50:06.824Z,1004.69
2019-02-07T02:51:06.822Z,1004.73
2019-02-07T02:52:06.798Z,1004.73
2019-02-07T02:53:06.819Z,1004.61
2019-02-07T02:54:06.772Z,1004.60
2019-02-07T02:55:06.774Z,1004.65
2019-02-07T02:56:06.750Z,1004.73
2019-02-07T02:57:06.753Z,1004.65
2019-02-07T02:58:06.741Z,1004.55
2019-02-07T02:59:06.753Z,1004.60
2019-02-07T03:00:06.706Z,1004.57
2019-02-07T03:01:06.710Z,1004.57
2019-02-07T03:02:06.683Z,1004.59
2019-02-07T03:03:06.694Z,1004.62
2019-02-07T03:04:06.660Z,1004.51
2019-02-07T03:05:06.680Z,1004.48
2019-02-07T03:06:06.646Z,1004.47
2019-02-07T03:07:06.647Z,1004.42
2019-02-07T03:08:06.632Z,1004.42
2019-02-07T03:09:06.607Z,1004.43
2019-02-07T03:10:06.604Z,1004.35
2019-02-07T03:11:06.591Z,1004.34
2019-02-07T03:12:06.588Z,1004.39
2019-02-07T03:13:06.602Z,1004.41
2019-02-07T03:14:06.575Z,1004.46
2019-02-07T03:15:06.550Z,1004.33
2019-02-07T03:16:06.532Z,1004.33
2019-02-07T03:17:06.522Z,1004.31
2019-02-07T03:18:06.511Z,1004.30
2019-02-07T03:19:06.541Z,1004.25
2019-02-07T03:20:06.501Z,1004.25
2019-02-07T03:21:06.476Z,1004.22
2019-02-07T03:22:06.467Z,1004.16
2019-02-07T03:23:06.457Z,1004.19
2019-02-07T03:24:06.480Z,1004.16
2019-02-07T03:25:06.479Z,1004.15
2019-02-07T03:26:06.426Z,1004.07
2019-02-07T03:27:06.412Z,1004.16
2019-02-07T03:28:06.400Z,1004.04
2019-02-07T03:29:06.387Z,1003.97
2019-02-07T03:30:06.403Z,1004.00
2019-02-07T03:31:06.373Z,1004.02
2019-02-07T03:32:06.403Z,1004.02
2019-02-07T03:33:06.345Z,1003.96
2019-02-07T03:34:06.331Z,1003.94
2019-02-07T03:35:06.329Z,1003.90
2019-02-07T03:36:06.330Z,1003.91
2019-02-07T03:37:06.303Z,1003.87
2019-02-07T03:38:06.320Z,1003.83
2019-02-07T03:39:06.277Z,1003.81
2019-02-07T03:40:06.268Z,1003.74
2019-02-07T03:41:06.262Z,1003.78
2019-02-07T03:42:06.263Z,1003.80
2019-02-07T03:43:06.236Z,1003.70
2019-02-07T03:44:06.254Z,1003.70
2019-02-07T03:45:06.212Z,1003.67
2019-02-07T03:46:06.211Z,1003.65
2019-02-07T03:47:06.203Z,1003.61
2019-02-07T03:48:06.190Z,1003.64
2019-02-07T05:16:20.435Z,1002.05
2019-02-07T05:17:20.409Z,1002.06
2019-02-07T05:18:20.437Z,1002.07
2019-02-07T05:19:20.399Z,1002.13
2019-02-07T05:20:20.383Z,1002.08
2019-02-07T05:21:20.394Z,1002.05
2019-02-07T05:22:29.100Z,1002.03
2019-02-07T05:23:20.386Z,1001.93
2019-02-07T05:24:20.351Z,1001.88
2019-02-07T05:25:20.329Z,1001.90
2019-02-07T05:26:20.328Z,1001.90
2019-02-07T05:27:20.303Z,1001.85
2019-02-07T05:28:20.324Z,1001.88
2019-02-07T05:29:20.310Z,1001.78
2019-02-07T05:30:20.270Z,1001.81
2019-02-07T05:31:20.255Z,1001.80
2019-02-07T05:32:20.250Z,1001.74
2019-02-07T05:33:20.258Z,1001.82
2019-02-07T05:34:20.247Z,1001.77
2019-02-07T05:35:20.243Z,1001.74
2019-02-07T05:36:20.202Z,1001.75
2019-02-07T05:37:20.218Z,1001.67
2019-02-07T05:38:20.219Z,1001.68
2019-02-07T05:39:20.198Z,1001.67
2019-02-07T05:40:20.160Z,1001.64
2019-02-07T05:41:20.159Z,1001.54
2019-02-07T05:42:22.600Z,1001.56
2019-02-07T05:43:20.135Z,1001.47
2019-02-07T05:44:20.129Z,1001.52
2019-02-07T05:45:20.135Z,1001.53
2019-02-07T05:46:20.090Z,1001.49
2019-02-07T05:47:20.124Z,1001.49
2019-02-07T05:48:20.082Z,1001.43
2019-02-07T05:49:20.060Z,1001.48
2019-02-07T05:50:20.136Z,1001.40
2019-02-07T05:51:20.049Z,1001.36
2019-02-07T05:52:20.044Z,1001.41
2019-02-07T05:53:20.015Z,1001.38
2019-02-07T05:54:20.001Z,1001.45
2019-02-07T05:55:20.006Z,1001.43
2019-02-07T05:56:20.022Z,1001.45
2019-02-07T05:57:19.969Z,1001.39
2019-02-07T05:58:19.956Z,1001.30
2019-02-07T05:59:19.967Z,1001.29
2019-02-07T06:00:19.932Z,1001.23
2019-02-07T06:01:19.923Z,1001.22
2019-02-07T06:02:19.957Z,1001.25
2019-02-07T06:03:19.897Z,1001.29
2019-02-07T06:04:19.891Z,1001.15
2019-02-07T06:05:19.917Z,1001.11
2019-02-07T06:06:19.881Z,1001.17
2019-02-07T06:07:19.873Z,1001.12
2019-02-07T06:08:19.855Z,1000.99
2019-02-07T06:09:19.842Z,1001.16
2019-02-07T06:10:19.849Z,1001.12
2019-02-07T06:11:19.813Z,1001.13
2019-02-07T06:12:19.834Z,1001.10
2019-02-07T06:13:19.804Z,1001.10
2019-02-07T06:14:19.808Z,1001.08
2019-02-07T06:15:19.767Z,1000.96
2019-02-07T06:16:19.771Z,1000.97
2019-02-07T06:17:19.758Z,1001.06
2019-02-07T06:18:19.734Z,1001.12
2019-02-07T06:19:19.746Z,1001.02
2019-02-07T06:20:19.724Z,1001.04
2019-02-07T06:21:19.711Z,1001.02
2019-02-07T06:22:19.702Z,1001.00
2019-02-07T06:23:19.743Z,1000.89
2019-02-07T06:24:19.689Z,1000.92
2019-02-07T06:25:19.696Z,1000.97
2019-02-07T06:26:19.660Z,1000.91
2019-02-07T06:27:19.657Z,1000.93
2019-02-07T06:28:19.624Z,1000.85
2019-02-07T06:29:19.641Z,1000.92
2019-02-07T06:30:19.618Z,1000.87
2019-02-07T06:31:19.613Z,1000.80
2019-02-07T06:32:19.576Z,1000.92
2019-02-07T06:33:19.583Z,1000.93
2019-02-07T06:34:28.754Z,1000.81
2019-02-07T06:35:20.542Z,1000.82
2019-02-07T06:36:19.537Z,1000.88
2019-02-07T06:37:19.562Z,1000.88
2019-02-07T06:38:19.540Z,1000.76
2019-02-07T06:39:19.510Z,1000.79
2019-02-07T06:40:19.493Z,1000.81
2019-02-07T06:41:19.510Z,1000.92
2019-02-07T06:42:19.460Z,1000.82
2019-02-07T06:43:19.471Z,1000.67
2019-02-07T06:44:19.441Z,1000.76
2019-02-07T06:45:19.450Z,1000.90
2019-02-07T06:46:19.434Z,1000.84
2019-02-07T06:47:19.416Z,1000.77
2019-02-07T06:48:19.404Z,1000.81
2019-02-07T06:49:19.410Z,1000.68
2019-02-07T06:50:19.395Z,1000.68
2019-02-07T06:51:19.372Z,1000.71
2019-02-07T06:52:19.399Z,1000.80
2019-02-07T06:53:19.369Z,1000.77
2019-02-07T06:54:19.373Z,1000.77
2019-02-07T06:55:19.396Z,1000.74
2019-02-07T06:56:19.328Z,1000.79
2019-02-07T06:57:19.434Z,1000.73
2019-02-07T06:58:19.340Z,1000.74
2019-02-07T06:59:19.299Z,1000.87
2019-02-07T07:00:19.283Z,1000.84
2019-02-07T07:01:19.334Z,1000.85
2019-02-07T07:02:19.243Z,1000.84
2019-02-07T07:03:19.276Z,1000.78
2019-02-07T07:04:19.241Z,1000.66
2019-02-07T07:05:19.245Z,1000.76
2019-02-07T07:06:19.206Z,1000.77
2019-02-07T07:07:19.203Z,1000.77
2019-02-07T07:08:19.200Z,1000.67
2019-02-07T07:09:19.172Z,1000.59
2019-02-07T07:10:19.189Z,1000.78
2019-02-07T07:11:19.167Z,1000.84
2019-02-07T07:12:19.130Z,1000.79
2019-02-07T07:13:19.149Z,1000.67
2019-02-07T07:14:19.136Z,1000.64
2019-02-07T07:15:19.118Z,1000.57
2019-02-07T07:16:19.108Z,1000.75
2019-02-07T07:17:25.406Z,1000.79
2019-02-07T07:18:20.111Z,1000.68
2019-02-07T07:19:19.070Z,1000.67
2019-02-07T07:20:19.071Z,1000.61
2019-02-07T07:21:19.043Z,1000.60
2019-02-07T07:22:19.089Z,1000.76
2019-02-07T07:23:19.008Z,1000.75
2019-02-07T07:24:26.550Z,1000.68
2019-02-07T07:25:26.535Z,1000.60
2019-02-07T07:26:26.512Z,1000.50
2019-02-07T07:29:45.578Z,1000.57
2019-02-07T07:31:58.363Z,1000.53
2019-02-07T07:34:11.121Z,1000.60
2019-02-07T07:36:23.908Z,1000.56
2019-02-07T07:37:23.877Z,1000.57
2019-02-07T07:38:23.893Z,1000.60
2019-02-07T07:39:23.874Z,1000.58
2019-02-07T07:40:23.847Z,1000.49
2019-02-07T07:41:23.827Z,1000.49
2019-02-07T07:42:23.835Z,1000.55
2019-02-07T07:43:31.353Z,1000.49
2019-02-07T07:44:23.804Z,1000.62
2019-02-07T07:45:23.775Z,1000.59
2019-02-07T07:46:23.777Z,1000.53
2019-02-07T07:47:23.755Z,1000.64
2019-02-07T07:48:23.759Z,1000.52
2019-02-07T07:49:23.744Z,1000.53
2019-02-07T07:50:23.734Z,1000.64
2019-02-07T07:51:23.711Z,1000.54
2019-02-07T07:52:23.696Z,1000.55
2019-02-07T07:53:23.687Z,1000.55
2019-02-07T07:54:23.700Z,1000.43
2019-02-07T07:55:23.666Z,1000.45
2019-02-07T07:56:23.654Z,1000.43
2019-02-07T07:57:23.656Z,1000.43
2019-02-07T07:58:23.633Z,1000.46
2019-02-07T07:59:23.619Z,1000.43
2019-02-07T08:00:23.637Z,1000.46
2019-02-07T08:01:23.597Z,1000.46
2019-02-07T08:02:23.586Z,1000.45
2019-02-07T08:03:23.574Z,1000.42
2019-02-07T08:04:23.564Z,1000.40
2019-02-07T08:05:23.553Z,1000.42
2019-02-07T08:06:23.563Z,1000.54
2019-02-07T08:07:23.538Z,1000.45
2019-02-07T08:08:23.525Z,1000.36
2019-02-07T08:09:23.529Z,1000.46
2019-02-07T08:10:23.521Z,1000.44
2019-02-07T08:11:23.516Z,1000.42
2019-02-07T08:12:23.483Z,1000.42
2019-02-07T08:13:23.465Z,1000.36
2019-02-07T08:14:23.456Z,1000.43
2019-02-07T08:15:23.475Z,1000.43
2019-02-07T08:16:23.442Z,1000.48
2019-02-07T08:17:23.436Z,1000.44
2019-02-07T08:18:23.410Z,1000.47
2019-02-07T08:19:23.401Z,1000.52
2019-02-07T08:20:23.386Z,1000.41
2019-02-07T08:21:23.392Z,1000.43
2019-02-07T08:22:23.367Z,1000.46
2019-02-07T08:23:23.367Z,1000.57
2019-02-07T08:24:23.344Z,1000.45
2019-02-07T08:25:23.330Z,1000.48
2019-02-07T08:26:23.337Z,1000.48
2019-02-07T08:27:23.309Z,1000.59
2019-02-07T08:28:23.309Z,1000.54
2019-02-07T08:29:23.338Z,1000.49
2019-02-07T08:30:23.273Z,1000.53
2019-02-07T08:31:23.266Z,1000.57
2019-02-07T08:32:23.270Z,1000.56
2019-02-07T08:33:23.246Z,1000.55
2019-02-07T08:34:23.230Z,1000.55
2019-02-07T08:35:23.245Z,1000.54
2019-02-07T08:36:23.214Z,1000.64
2019-02-07T08:37:23.195Z,1000.57
2019-02-07T08:38:23.206Z,1000.51
2019-02-07T08:39:23.173Z,1000.56
2019-02-07T08:40:23.167Z,1000.51
2019-02-07T08:41:23.189Z,1000.48
2019-02-07T08:42:23.141Z,1000.54
2019-02-07T08:43:23.133Z,1000.51
2019-02-07T08:44:23.130Z,1000.58
2019-02-07T08:45:23.132Z,1000.66
2019-02-07T08:46:23.093Z,1000.58
2019-02-07T08:47:23.123Z,1000.68
2019-02-07T08:48:23.072Z,1000.63
2019-02-07T08:49:23.099Z,1000.71
2019-02-07T08:50:24.461Z,1000.67
2019-02-07T08:51:23.043Z,1000.60
2019-02-07T08:52:23.054Z,1000.69
2019-02-07T08:53:23.033Z,1000.71
2019-02-07T08:54:23.004Z,1000.68
2019-02-07T08:55:23.006Z,1000.66
2019-02-07T08:56:22.981Z,1000.75
2019-02-07T08:57:22.971Z,1000.74
2019-02-07T08:58:22.956Z,1000.73
2019-02-07T08:59:22.977Z,1000.51
2019-02-07T09:00:22.977Z,1000.64
2019-02-07T09:01:22.927Z,1000.61
2019-02-07T09:02:22.919Z,1000.76
2019-02-07T09:03:22.903Z,1000.66
2019-02-07T09:04:22.893Z,1000.64
2019-02-07T09:05:22.883Z,1000.62
2019-02-07T09:06:22.915Z,1000.67
2019-02-07T09:07:22.861Z,1000.63
2019-02-07T09:08:22.846Z,1000.66
2019-02-07T09:09:22.835Z,1000.59
2019-02-07T09:10:22.824Z,1000.67
2019-02-07T09:11:22.814Z,1000.64
2019-02-07T09:12:22.831Z,1000.61
2019-02-07T09:13:22.791Z,1000.63
2019-02-07T09:14:22.779Z,1000.67
2019-02-07T09:15:22.772Z,1000.67
2019-02-07T09:16:22.757Z,1000.67
2019-02-07T09:17:22.771Z,1000.75
2019-02-07T09:18:22.749Z,1000.73
2019-02-07T09:19:22.723Z,1000.66
2019-02-07T09:20:22.721Z,1000.73
2019-02-07T09:21:22.702Z,1000.69
2019-02-07T09:22:23.977Z,1000.75
2019-02-07T09:23:22.692Z,1000.73
2019-02-07T09:24:22.684Z,1000.74
2019-02-07T09:25:22.653Z,1000.73
2019-02-07T09:26:22.651Z,1000.70
2019-02-07T09:27:22.636Z,1000.81
2019-02-07T09:28:22.623Z,1000.80
2019-02-07T09:29:22.659Z,1000.73
2019-02-07T09:30:22.609Z,1000.79
2019-02-07T09:31:22.611Z,1000.83
2019-02-07T09:32:22.576Z,1000.82
2019-02-07T09:33:22.568Z,1000.80
2019-02-07T09:34:22.554Z,1000.85
2019-02-07T09:35:22.575Z,1000.93
2019-02-07T09:36:22.535Z,1000.88
2019-02-07T09:37:22.521Z,1000.93
2019-02-07T09:38:22.510Z,1000.90
2019-02-07T09:39:22.498Z,1000.96
2019-02-07T09:40:22.487Z,1000.94
2019-02-07T09:41:22.501Z,1001.02
2019-02-07T09:42:22.463Z,1001.01
2019-02-07T09:43:22.453Z,1000.91
2019-02-07T09:44:22.442Z,1000.99
2019-02-07T09:45:22.429Z,1001.07
2019-02-07T09:46:22.433Z,1000.97
2019-02-07T09:47:22.453Z,1001.03
2019-02-07T09:48:22.400Z,1000.94
2019-02-07T09:49:22.384Z,1001.05
2019-02-07T09:50:22.374Z,1001.05
2019-02-07T09:51:22.361Z,1001.10
2019-02-07T09:52:22.368Z,1001.14
2019-02-07T09:53:24.034Z,1001.13
2019-02-07T09:54:22.330Z,1001.15
2019-02-07T09:55:22.318Z,1001.09
2019-02-07T09:56:22.306Z,1001.12
2019-02-07T09:57:22.295Z,1001.15
2019-02-07T09:58:22.299Z,1001.18
2019-02-07T09:59:22.289Z,1001.16
2019-02-07T10:00:22.262Z,1001.15
2019-02-07T10:01:22.250Z,1001.17
2019-02-07T10:02:22.239Z,1001.13
2019-02-07T10:03:22.227Z,1001.15
2019-02-07T10:04:22.227Z,1001.16
2019-02-07T10:05:22.222Z,1001.11
2019-02-07T10:06:22.194Z,1001.16
2019-02-07T10:07:22.189Z,1001.16
2019-02-07T10:08:22.171Z,1001.11
2019-02-07T10:09:22.181Z,1001.12
2019-02-07T10:10:22.152Z,1001.18
2019-02-07T10:11:22.152Z,1001.15
2019-02-07T10:12:22.141Z,1001.24
2019-02-07T10:13:22.114Z,1001.14
2019-02-07T10:14:22.115Z,1001.24
2019-02-07T10:15:22.096Z,1001.21
2019-02-07T10:16:22.079Z,1001.24
2019-02-07T10:17:22.088Z,1001.18
2019-02-07T10:18:32.536Z,1001.17
2019-02-07T10:19:23.061Z,1001.19
2019-02-07T10:20:22.040Z,1001.16
2019-02-07T10:21:22.025Z,1001.19
2019-02-07T10:22:22.013Z,1001.28
2019-02-07T10:23:22.031Z,1001.22
2019-02-07T10:24:21.990Z,1001.23
2019-02-07T10:25:21.990Z,1001.27
2019-02-07T10:26:21.988Z,1001.24
2019-02-07T10:27:21.960Z,1001.40
2019-02-07T10:28:21.945Z,1001.16
2019-02-07T10:29:21.958Z,1001.28
2019-02-07T10:30:21.926Z,1001.29
2019-02-07T10:31:21.917Z,1001.35
2019-02-07T10:32:21.921Z,1001.35
2019-02-07T10:33:21.890Z,1001.32
2019-02-07T10:34:21.883Z,1001.36
2019-02-07T10:35:23.074Z,1001.22
2019-02-07T10:36:21.894Z,1001.35
2019-02-07T10:37:21.859Z,1001.29
2019-02-07T10:38:21.846Z,1001.25
2019-02-07T10:39:21.822Z,1001.36
2019-02-07T10:40:21.814Z,1001.27
2019-02-07T10:41:21.800Z,1001.28
2019-02-07T10:42:21.818Z,1001.31
2019-02-07T10:43:21.797Z,1001.12
2019-02-07T10:44:21.777Z,1001.30
2019-02-07T10:45:21.757Z,1001.36
2019-02-07T10:46:21.749Z,1001.30
2019-02-07T10:47:21.739Z,1001.28
2019-02-07T10:48:21.742Z,1001.33
2019-02-07T10:49:21.725Z,1001.33
2019-02-07T10:50:21.702Z,1001.26
2019-02-07T10:51:21.690Z,1001.27
2019-02-07T10:52:21.677Z,1001.23
2019-02-07T10:53:21.671Z,1001.30
2019-02-07T10:54:21.705Z,1001.33
2019-02-07T10:55:21.663Z,1001.33
2019-02-07T10:56:21.633Z,1001.29
2019-02-07T10:57:21.626Z,1001.21
2019-02-07T10:58:21.610Z,1001.22
2019-02-07T10:59:21.600Z,1001.28
2019-02-07T11:00:21.682Z,1001.35
2019-02-07T11:01:21.589Z,1001.33
2019-02-07T11:02:21.566Z,1001.22
2019-02-07T11:03:21.559Z,1001.34
2019-02-07T11:04:21.547Z,1001.34
2019-02-07T11:05:21.533Z,1001.24
2019-02-07T11:06:21.565Z,1001.21
2019-02-07T11:07:21.508Z,1001.24
2019-02-07T11:08:21.499Z,1001.29
2019-02-07T11:09:21.488Z,1001.23
2019-02-07T11:10:21.477Z,1001.17
2019-02-07T11:11:21.466Z,1001.27
2019-02-07T11:12:21.509Z,1001.22
2019-02-07T11:13:21.442Z,1001.28
2019-02-07T11:14:21.436Z,1001.21
2019-02-07T11:15:21.421Z,1001.29
2019-02-07T11:16:21.408Z,1001.21
2019-02-07T11:17:21.410Z,1001.18
2019-02-07T11:18:21.387Z,1001.37
2019-02-07T11:19:21.762Z,1001.26
2019-02-07T11:20:21.363Z,1001.19
2019-02-07T11:21:21.355Z,1001.25
2019-02-07T11:22:23.099Z,1001.23
2019-02-07T11:23:21.348Z,1001.23
2019-02-07T11:24:21.323Z,1001.06
2019-02-07T11:25:21.347Z,1001.13
2019-02-07T11:26:21.296Z,1001.17
2019-02-07T11:27:21.307Z,1001.22
2019-02-07T11:28:21.275Z,1001.22
2019-02-07T11:29:21.288Z,1001.23
2019-02-07T11:30:21.253Z,1001.05
2019-02-07T11:31:21.274Z,1001.09
2019-02-07T11:32:21.243Z,1001.15
2019-02-07T11:33:21.221Z,1001.02
2019-02-07T11:34:21.209Z,1001.14
2019-02-07T11:35:21.208Z,1001.07
2019-02-07T11:36:21.239Z,1001.02
2019-02-07T11:37:21.194Z,1001.06
2019-02-07T11:38:21.166Z,1001.05
2019-02-07T11:39:21.153Z,1001.11
2019-02-07T11:40:21.157Z,1001.10
2019-02-07T11:41:21.133Z,1000.92
2019-02-07T11:42:21.120Z,1001.06
2019-02-07T11:43:21.109Z,1000.97
2019-02-07T11:44:21.128Z,1000.99
2019-02-07T11:45:21.084Z,1001.07
2019-02-07T11:46:21.096Z,1001.08
2019-02-07T11:47:21.069Z,1000.98
2019-02-07T11:48:21.050Z,1001.08
2019-02-07T11:49:21.045Z,1000.98
2019-02-07T11:50:21.032Z,1001.01
2019-02-07T11:51:21.058Z,1001.06
2019-02-07T11:52:21.008Z,1001.03
2019-02-07T11:53:21.002Z,1001.04
2019-02-07T11:54:20.985Z,1001.12
2019-02-07T11:55:20.972Z,1001.04
2019-02-07T11:56:20.963Z,1001.00
2019-02-07T11:57:20.997Z,1000.92
2019-02-07T11:58:20.941Z,1000.89
2019-02-07T11:59:20.928Z,1000.92
2019-02-07T12:00:20.923Z,1000.94
2019-02-07T12:01:20.929Z,1000.93
2019-02-07T12:02:20.912Z,1000.98
2019-02-07T12:03:20.924Z,1000.91
2019-02-07T12:04:20.874Z,1000.86
2019-02-07T12:05:20.865Z,1000.81
2019-02-07T12:06:20.851Z,1000.84
2019-02-07T12:07:20.838Z,1000.88
2019-02-07T12:08:20.846Z,1000.89
2019-02-07T12:09:20.836Z,1000.92
2019-02-07T12:10:20.843Z,1000.86
2019-02-07T12:11:20.801Z,1000.89
2019-02-07T12:12:20.783Z,1000.97
2019-02-07T12:13:20.772Z,1000.89
2019-02-07T12:14:20.790Z,1000.87
2019-02-07T12:15:20.769Z,1000.89
2019-02-07T12:16:20.740Z,1000.89
2019-02-07T12:17:22.966Z,1000.81
2019-02-07T12:18:20.720Z,1000.90
2019-02-07T12:19:20.723Z,1000.88
2019-02-07T12:20:20.694Z,1000.79
2019-02-07T12:21:20.709Z,1000.88
2019-02-07T12:22:20.672Z,1000.89
2019-02-07T12:23:20.660Z,1000.89
2019-02-07T12:24:20.655Z,1000.93
2019-02-07T12:25:20.654Z,1000.94
2019-02-07T12:26:20.631Z,1001.00
2019-02-07T12:27:20.649Z,1000.98
2019-02-07T12:28:20.607Z,1000.94
2019-02-07T12:29:20.595Z,1000.91
2019-02-07T12:30:20.584Z,1000.93
2019-02-07T12:31:20.583Z,1000.94
2019-02-07T12:32:20.578Z,1000.97
2019-02-07T12:33:20.564Z,1000.94
2019-02-07T12:34:20.565Z,1001.00
2019-02-07T12:35:20.529Z,1000.92
2019-02-07T12:36:20.519Z,1001.00
2019-02-07T12:37:20.509Z,1001.00
2019-02-07T12:38:20.502Z,1000.95
2019-02-07T12:39:20.524Z,1001.04
2019-02-07T12:40:20.474Z,1000.94
2019-02-07T12:41:20.459Z,1000.90
2019-02-07T12:42:20.452Z,1000.97
2019-02-07T12:43:20.450Z,1000.89
2019-02-07T12:44:20.429Z,1000.90
2019-02-07T12:45:20.453Z,1000.89
2019-02-07T12:46:20.409Z,1000.89
2019-02-07T12:47:20.392Z,1000.95
2019-02-07T12:48:20.400Z,1000.84
2019-02-07T12:49:28.877Z,1000.90
2019-02-07T12:50:21.359Z,1000.85
2019-02-07T12:51:20.364Z,1000.88
2019-02-07T12:52:20.342Z,1000.85
2019-02-07T12:53:20.328Z,1000.88
2019-02-07T12:54:20.337Z,1000.83
2019-02-07T12:55:20.319Z,1000.83
2019-02-07T12:56:20.294Z,1000.93
2019-02-07T12:57:20.316Z,1000.86
2019-02-07T12:58:20.273Z,1000.91
2019-02-07T12:59:20.261Z,1000.86
2019-02-07T13:00:20.262Z,1000.94
2019-02-07T13:01:20.236Z,1000.88
2019-02-07T13:02:20.226Z,1000.90
2019-02-07T13:03:20.264Z,1000.84
2019-02-07T13:04:20.213Z,1000.84
2019-02-07T13:05:20.194Z,1000.75
2019-02-07T13:06:20.191Z,1000.87
2019-02-07T13:07:20.170Z,1000.86
2019-02-07T13:08:20.246Z,1000.83
2019-02-07T13:09:20.165Z,1000.85
2019-02-07T13:10:20.157Z,1000.80
2019-02-07T13:11:20.144Z,1000.81
2019-02-07T13:12:20.124Z,1000.85
2019-02-07T13:13:20.146Z,1000.85
2019-02-07T13:14:20.112Z,1000.82
2019-02-07T13:15:20.081Z,1000.84
2019-02-07T13:16:20.094Z,1000.78
2019-02-07T13:17:20.091Z,1000.79
2019-02-07T13:18:20.075Z,1000.80
2019-02-07T13:19:20.035Z,1000.76
2019-02-07T13:20:20.029Z,1000.81
2019-02-07T13:21:20.030Z,1000.76
2019-02-07T13:22:20.063Z,1000.83
2019-02-07T13:23:20.047Z,1000.91
2019-02-07T13:24:19.982Z,1000.81
2019-02-07T13:25:19.993Z,1000.80
2019-02-07T13:26:20.006Z,1000.85
2019-02-07T13:27:19.945Z,1000.85
2019-02-07T13:28:19.982Z,1000.78
2019-02-07T13:29:19.942Z,1000.81
2019-02-07T13:30:20.037Z,1000.84
2019-02-07T13:31:19.924Z,1000.85
2019-02-07T13:32:19.898Z,1000.64
2019-02-07T13:33:19.974Z,1000.83
2019-02-07T13:34:19.892Z,1000.70
2019-02-07T13:35:19.904Z,1000.73
2019-02-07T13:36:19.902Z,1000.71
2019-02-07T13:37:19.843Z,1000.73
2019-02-07T13:38:19.822Z,1000.72